Time;durP1;ratioP1;P1;durP2;ratioP2;P2;SDS_P1;SDS_P2;PMS_P1;PMS_P2;Temp;Humidity;BMP_temperature;BMP_pressure;BME280_temperature;BME280_humidity;BME280_pressure;Samples;Min_cycle;Max_cycle;Signal;HPM_P1;HPM_P2
2024/03/18 00:01:56;;;;;;;18.35;6.72;;;;;;;8.51;100.00;97489.31;5034982;28;20411;-80
2024/03/18 00:04:23;;;;;;;13.65;5.47;;;;;;;8.53;100.00;97484.59;5039301;28;20409;-80
2024/03/18 00:06:49;;;;;;;13.20;4.78;;;;;;;8.54;100.00;97483.56;5037102;28;20815;-80
2024/03/18 00:09:15;;;;;;;10.23;4.60;;;;;;;8.56;100.00;97477.28;5040038;28;20802;-80
2024/03/18 00:11:42;;;;;;;10.23;4.07;;;;;;;8.57;100.00;97468.31;5041339;28;20884;-80
2024/03/18 00:14:09;;;;;;;10.00;4.55;;;;;;;8.57;100.00;97470.97;5029592;28;20407;-79
2024/03/18 00:16:37;;;;;;;11.20;4.35;;;;;;;8.54;100.00;97480.94;5036059;28;20436;-80
2024/03/18 00:19:03;;;;;;;10.55;4.25;;;;;;;8.55;100.00;97476.47;5039299;28;20395;-80
2024/03/18 00:21:31;;;;;;;21.20;7.70;;;;;;;8.54;100.00;97480.13;5041115;28;20410;-79
2024/03/18 00:23:57;;;;;;;23.38;7.78;;;;;;;8.50;100.00;97474.50;5037238;28;20477;-79
2024/03/18 00:26:23;;;;;;;21.58;7.68;;;;;;;8.48;100.00;97478.44;5045232;28;20423;-80
2024/03/18 00:28:49;;;;;;;22.77;7.38;;;;;;;8.45;100.00;97482.34;5028517;28;20408;-80
2024/03/18 00:31:15;;;;;;;35.67;10.63;;;;;;;8.46;100.00;97475.22;5030760;28;20747;-80
2024/03/18 00:33:42;;;;;;;28.98;8.98;;;;;;;8.38;100.00;97481.69;5025639;28;20415;-80
2024/03/18 00:36:08;;;;;;;20.92;7.65;;;;;;;8.35;100.00;97484.78;5034567;28;20412;-80
2024/03/18 00:38:36;;;;;;;28.77;7.45;;;;;;;8.39;100.00;97480.66;5041065;28;20410;-80
2024/03/18 00:43:48;;;;;;;25.83;9.07;;;;;;;8.37;100.00;97472.16;5041850;28;20760;-80
2024/03/18 00:46:15;;;;;;;19.02;7.22;;;;;;;8.40;100.00;97466.44;5037720;28;20931;-79
2024/03/18 00:48:42;;;;;;;24.50;8.30;;;;;;;8.40;100.00;97465.63;5044474;28;20422;-79
2024/03/18 00:51:08;;;;;;;29.27;9.02;;;;;;;8.39;100.00;97467.47;5027834;28;20401;-80
2024/03/18 00:53:35;;;;;;;16.85;7.22;;;;;;;8.38;100.00;97463.22;5036678;28;20392;-80
2024/03/18 00:56:06;;;;;;;18.95;6.30;;;;;;;8.40;100.00;97455.06;5047855;28;20427;-80
2024/03/18 00:58:32;;;;;;;14.02;5.80;;;;;;;8.43;100.00;97451.94;5047748;28;20457;-80
2024/03/18 01:00:58;;;;;;;23.35;7.20;;;;;;;8.42;100.00;97443.22;5040065;28;20403;-80
2024/03/18 01:03:24;;;;;;;20.25;6.80;;;;;;;8.39;100.00;97440.28;5040240;28;20409;-79
2024/03/18 01:05:50;;;;;;;32.80;9.13;;;;;;;8.45;100.00;97444.59;5039500;28;20421;-79
2024/03/18 01:08:17;;;;;;;38.53;10.97;;;;;;;8.43;100.00;97444.03;5040296;28;20904;-79
2024/03/18 01:10:44;;;;;;;34.55;10.68;;;;;;;8.41;100.00;97428.47;5048787;28;20441;-80
2024/03/18 01:13:11;;;;;;;24.20;9.07;;;;;;;8.38;100.00;97428.13;5033062;28;20811;-80
2024/03/18 01:15:37;;;;;;;19.38;7.38;;;;;;;8.38;100.00;97426.28;5048352;28;20398;-80
2024/03/18 01:18:07;;;;;;;15.80;6.40;;;;;;;8.42;100.00;97424.75;5048372;28;20411;-80
2024/03/18 01:20:33;;;;;;;16.17;5.82;;;;;;;8.44;100.00;97425.34;5048192;28;20403;-80
2024/03/18 01:22:59;;;;;;;15.68;5.60;;;;;;;8.48;100.00;97415.13;5036503;28;20403;-79
2024/03/18 01:25:29;;;;;;;15.53;6.27;;;;;;;8.49;100.00;97409.59;5036555;28;20443;-80
2024/03/18 01:27:56;;;;;;;35.00;10.68;;;;;;;8.48;100.00;97408.03;5037429;28;20403;-80
2024/03/18 01:30:23;;;;;;;31.23;10.50;;;;;;;8.48;100.00;97408.03;5047375;28;20399;-79
2024/03/18 01:32:49;;;;;;;27.42;9.80;;;;;;;8.44;100.00;97411.34;5047911;28;20402;-80
2024/03/18 01:35:22;;;;;;;24.40;8.20;;;;;;;8.39;100.00;97412.06;5047558;28;20764;-80
2024/03/18 01:37:49;;;;;;;20.35;7.50;;;;;;;8.40;100.00;97410.22;5046412;28;20404;-80
2024/03/18 01:40:15;;;;;;;27.17;8.07;;;;;;;8.41;100.00;97402.09;5033321;28;20954;-80
2024/03/18 01:42:43;;;;;;;30.05;8.45;;;;;;;8.41;100.00;97399.47;5039606;28;20391;-80
2024/03/18 01:45:20;;;;;;;27.98;8.27;;;;;;;8.40;100.00;97400.50;5044180;28;20416;-80
2024/03/18 01:47:46;;;;;;;22.33;7.88;;;;;;;8.35;100.00;97397.75;5050246;28;20402;-80
2024/03/18 01:50:13;;;;;;;22.90;7.70;;;;;;;8.36;100.00;97390.63;5049308;28;20414;-80
2024/03/18 01:52:39;;;;;;;15.95;6.63;;;;;;;8.32;100.00;97387.69;5042693;28;20400;-80
2024/03/18 01:55:06;;;;;;;16.38;5.55;;;;;;;8.35;100.00;97386.38;5029114;28;20408;-80
2024/03/18 01:57:32;;;;;;;14.93;5.55;;;;;;;8.32;100.00;97392.94;5046370;28;20395;-80
2024/03/18 01:59:59;;;;;;;10.50;5.18;;;;;;;8.30;100.00;97389.72;5032214;28;20397;-80
2024/03/18 02:02:27;;;;;;;12.02;4.97;;;;;;;8.29;100.00;97384.66;5039043;28;20399;-79
2024/03/18 02:04:53;;;;;;;9.15;4.72;;;;;;;8.33;100.00;97391.91;5038566;28;20444;-80
2024/03/18 02:07:21;;;;;;;9.52;4.68;;;;;;;8.35;100.00;97389.81;5042250;28;20443;-80
2024/03/18 02:09:48;;;;;;;14.07;5.78;;;;;;;8.33;100.00;97391.13;5036199;28;20811;-80
2024/03/18 02:12:14;;;;;;;11.68;5.05;;;;;;;8.30;100.00;97384.44;5039003;28;20405;-80
2024/03/18 02:14:43;;;;;;;9.93;4.60;;;;;;;8.33;100.00;97383.19;5040563;28;20403;-80
2024/03/18 02:17:10;;;;;;;10.60;4.32;;;;;;;8.33;100.00;97378.72;5043252;28;20406;-80
2024/03/18 02:19:37;;;;;;;12.10;4.37;;;;;;;8.32;100.00;97377.13;5042350;28;20494;-80
2024/03/18 02:22:06;;;;;;;8.25;4.20;;;;;;;8.33;100.00;97368.19;5034975;28;20418;-80
2024/03/18 02:24:33;;;;;;;7.55;3.55;;;;;;;8.36;100.00;97367.69;5036128;28;20432;-80
2024/03/18 02:27:04;;;;;;;7.45;3.75;;;;;;;8.38;100.00;97360.34;5042898;28;20791;-80
2024/03/18 02:29:31;;;;;;;7.32;3.58;;;;;;;8.39;100.00;97356.69;5043530;28;20788;-80
2024/03/18 02:31:57;;;;;;;6.38;3.40;;;;;;;8.39;100.00;97356.69;5033335;28;20408;-80
2024/03/18 02:34:23;;;;;;;7.50;3.53;;;;;;;8.42;100.00;97355.41;5031608;28;20400;-78
2024/03/18 02:36:51;;;;;;;12.57;5.45;;;;;;;8.41;100.00;97348.53;5034173;28;20708;-80
2024/03/18 02:39:24;;;;;;;12.23;5.13;;;;;;;8.38;100.00;97344.53;5043183;28;20407;-79
2024/03/18 02:41:51;;;;;;;17.85;6.35;;;;;;;8.39;100.00;97337.41;5034402;28;20397;-80
2024/03/18 02:44:18;;;;;;;18.38;7.18;;;;;;;8.38;100.00;97335.81;5037059;28;20602;-80
2024/03/18 02:46:45;;;;;;;22.05;7.43;;;;;;;8.36;100.00;97343.97;5032698;28;20419;-80
2024/03/18 02:49:11;;;;;;;20.73;7.68;;;;;;;8.35;100.00;97331.00;5030804;28;20458;-80
2024/03/18 02:51:37;;;;;;;22.40;8.07;;;;;;;8.33;100.00;97338.38;5032123;28;20414;-80
2024/03/18 02:54:04;;;;;;;19.95;7.15;;;;;;;8.29;100.00;97329.28;5035804;28;20461;-80
2024/03/18 02:56:31;;;;;;;12.75;5.72;;;;;;;8.27;100.00;97329.53;5043289;28;20407;-80
2024/03/18 02:58:57;;;;;;;13.05;5.68;;;;;;;8.27;100.00;97321.59;5043027;28;20474;-80
2024/03/18 03:01:24;;;;;;;14.50;5.13;;;;;;;8.29;100.00;97318.75;5043026;28;20395;-80
2024/03/18 03:04:00;;;;;;;12.75;5.50;;;;;;;8.29;100.00;97318.75;5042419;28;20399;-80
2024/03/18 03:06:26;;;;;;;10.03;4.73;;;;;;;8.29;100.00;97316.91;5037235;28;20909;-80
2024/03/18 03:08:52;;;;;;;9.60;4.20;;;;;;;8.31;100.00;97314.06;5041305;28;20403;-79
2024/03/18 03:11:18;;;;;;;9.52;3.97;;;;;;;8.33;100.00;97307.53;5034778;28;20421;-81
2024/03/18 03:13:46;;;;;;;13.73;4.95;;;;;;;8.32;100.00;97303.28;5033338;28;20396;-80
2024/03/18 03:16:13;;;;;;;20.80;7.30;;;;;;;8.35;100.00;97299.34;5022925;28;20439;-80
2024/03/18 03:18:39;;;;;;;24.55;7.88;;;;;;;8.35;100.00;97302.00;5033141;28;20399;-79
2024/03/18 03:21:06;;;;;;;22.70;8.75;;;;;;;8.34;100.00;97298.59;5034342;28;20409;-79
2024/03/18 03:23:34;;;;;;;22.50;8.35;;;;;;;8.31;100.00;97303.53;5034368;28;20407;-80
2024/03/18 03:26:00;;;;;;;21.92;7.65;;;;;;;8.28;100.00;97314.50;5032216;28;20431;-80
2024/03/18 03:28:26;;;;;;;21.83;7.80;;;;;;;8.26;100.00;97301.56;5033636;28;20529;-80
2024/03/18 03:31:02;;;;;;;22.95;8.00;;;;;;;8.30;100.00;97307.16;5042076;28;20452;-80
2024/03/18 03:33:28;;;;;;;25.02;8.15;;;;;;;8.29;100.00;97303.72;5034655;28;20412;-80
2024/03/18 03:35:57;;;;;;;31.55;8.88;;;;;;;8.30;100.00;97299.25;5033791;28;20491;-80
2024/03/18 03:38:23;;;;;;;19.95;6.60;;;;;;;8.26;100.00;97304.22;5041913;28;20399;-80
2024/03/18 03:40:53;;;;;;;17.13;6.15;;;;;;;8.25;100.00;97297.34;5025379;28;20923;-80
2024/03/18 03:43:19;;;;;;;15.55;6.05;;;;;;;8.25;100.00;97292.06;5033950;28;20411;-81
2024/03/18 03:45:54;;;;;;;14.25;5.38;;;;;;;8.26;100.00;97298.94;5039952;28;20430;-80
2024/03/18 03:48:22;;;;;;;11.07;4.80;;;;;;;8.27;100.00;97286.56;5030600;28;20952;-80
2024/03/18 03:50:49;;;;;;;9.68;4.57;;;;;;;8.27;100.00;97284.69;5020711;28;20447;-79
2024/03/18 03:53:15;;;;;;;10.10;4.47;;;;;;;8.28;100.00;97277.56;5035638;28;20397;-80
2024/03/18 03:55:41;;;;;;;19.77;7.28;;;;;;;8.25;100.00;97270.97;5029124;28;20403;-80
2024/03/18 03:58:07;;;;;;;11.88;5.22;;;;;;;8.23;100.00;97264.31;5041061;28;20394;-80
2024/03/18 04:00:34;;;;;;;10.77;4.88;;;;;;;8.24;100.00;97258.00;5033452;28;20462;-79
2024/03/18 04:03:00;;;;;;;16.37;6.40;;;;;;;8.20;100.00;97256.88;5040930;28;20432;-80
2024/03/18 04:05:27;;;;;;;11.55;5.30;;;;;;;8.18;100.00;97256.34;5032940;28;20419;-80
2024/03/18 04:07:53;;;;;;;10.65;4.60;;;;;;;8.16;100.00;97259.22;5025083;28;20420;-80
2024/03/18 04:10:20;;;;;;;14.57;5.85;;;;;;;8.20;100.00;97256.88;5046304;28;20474;-82
2024/03/18 04:12:46;;;;;;;19.88;7.28;;;;;;;8.16;100.00;97257.38;5056134;28;20641;-79
2024/03/18 04:15:12;;;;;;;18.48;7.03;;;;;;;8.16;100.00;97248.66;5030555;28;20405;-80
2024/03/18 04:17:38;;;;;;;20.33;7.95;;;;;;;8.16;100.00;97252.09;5029216;28;20891;-80
2024/03/18 04:20:18;;;;;;;20.30;7.70;;;;;;;8.15;100.00;97253.13;5029087;28;20409;-81
2024/03/18 04:22:46;;;;;;;19.13;6.68;;;;;;;8.14;100.00;97248.91;5037782;28;20409;-80
2024/03/18 04:25:13;;;;;;;25.83;7.82;;;;;;;8.14;100.00;97248.09;5036079;28;20442;-81
2024/03/18 04:27:39;;;;;;;22.15;8.07;;;;;;;8.10;100.00;97241.72;5037476;28;20891;-80
2024/03/18 04:30:06;;;;;;;19.38;6.82;;;;;;;8.11;100.00;97241.47;5045511;28;20402;-80
2024/03/18 04:32:32;;;;;;;19.60;7.67;;;;;;;8.12;100.00;97231.69;5047828;28;20403;-80
2024/03/18 04:34:58;;;;;;;22.23;8.25;;;;;;;8.13;100.00;97238.56;5034028;28;20401;-81
2024/03/18 04:37:24;;;;;;;13.38;7.13;;;;;;;8.14;100.00;97237.53;5035021;28;20405;-80
2024/03/18 04:39:52;;;;;;;46.55;13.02;;;;;;;8.12;100.00;97244.88;5048356;28;20395;-80
2024/03/18 04:42:18;;;;;;;39.50;12.93;;;;;;;8.16;100.00;97233.63;5041339;28;20400;-79
2024/03/18 04:44:44;;;;;;;33.53;11.15;;;;;;;8.16;100.00;97233.63;5043458;28;20395;-80
2024/03/18 04:47:11;;;;;;;26.13;9.43;;;;;;;8.18;100.00;97227.34;5041968;28;20426;-80
2024/03/18 04:49:37;;;;;;;21.27;8.07;;;;;;;8.19;100.00;97223.66;5031681;28;20971;-79
2024/03/18 04:52:03;;;;;;;28.25;9.48;;;;;;;8.18;100.00;97228.13;5048892;28;20409;-80
2024/03/18 04:54:30;;;;;;;20.83;7.00;;;;;;;8.18;100.00;97228.13;5042535;28;20397;-80
2024/03/18 04:56:58;;;;;;;16.08;5.90;;;;;;;8.20;100.00;97227.88;5043143;28;20405;-81
2024/03/18 04:59:24;;;;;;;11.82;5.28;;;;;;;8.21;100.00;97225.00;5040401;28;20402;-80
2024/03/18 05:01:51;;;;;;;9.77;4.60;;;;;;;8.24;100.00;97229.00;5039510;28;20410;-80
2024/03/18 05:04:17;;;;;;;11.85;4.55;;;;;;;8.25;100.00;97226.13;5035050;28;20408;-80
2024/03/18 05:06:43;;;;;;;13.57;5.90;;;;;;;8.26;100.00;97225.09;5038129;28;20440;-80
2024/03/18 05:09:09;;;;;;;20.05;6.88;;;;;;;8.28;100.00;97224.84;5044249;28;20426;-81
2024/03/18 05:11:35;;;;;;;18.25;6.45;;;;;;;8.25;100.00;97222.69;5043664;28;20399;-80
2024/03/18 05:14:03;;;;;;;11.82;5.60;;;;;;;8.25;100.00;97228.78;5036566;28;20885;-79
2024/03/18 05:16:35;;;;;;;18.92;7.15;;;;;;;8.23;100.00;97220.28;5041222;28;20407;-80
2024/03/18 05:19:01;;;;;;;16.95;6.38;;;;;;;8.23;100.00;97222.13;5032485;28;20423;-80
2024/03/18 05:21:28;;;;;;;12.80;5.55;;;;;;;8.24;100.00;97221.09;5032793;28;20416;-79
2024/03/18 05:23:54;;;;;;;12.77;5.35;;;;;;;8.26;100.00;97219.84;5039930;28;20414;-80
2024/03/18 05:26:21;;;;;;;14.25;5.40;;;;;;;8.26;100.00;97221.66;5034171;28;20469;-80
2024/03/18 05:28:47;;;;;;;10.73;4.90;;;;;;;8.26;100.00;97225.09;5030493;28;20972;-80
2024/03/18 05:31:15;;;;;;;9.90;4.20;;;;;;;8.26;100.00;97211.91;5033208;28;20486;-79
2024/03/18 05:33:41;;;;;;;7.72;4.32;;;;;;;8.28;100.00;97214.28;5026226;28;20401;-81
2024/03/18 05:36:07;;;;;;;6.87;3.67;;;;;;;8.26;100.00;97209.28;5034530;28;20425;-81
2024/03/18 05:38:33;;;;;;;25.67;7.47;;;;;;;8.26;100.00;97208.47;5039118;28;20456;-80
2024/03/18 05:41:00;;;;;;;11.82;4.60;;;;;;;8.26;100.00;97208.47;5037595;28;20451;-78
2024/03/18 05:43:26;;;;;;;16.17;6.20;;;;;;;8.25;100.00;97206.88;5027765;28;20488;-77
2024/03/18 05:45:52;;;;;;;10.85;4.88;;;;;;;8.23;100.00;97196.56;5020091;28;20425;-79
2024/03/18 05:48:19;;;;;;;10.15;5.45;;;;;;;8.24;100.00;97202.66;5035858;28;20410;-79
2024/03/18 05:50:46;;;;;;;16.17;6.60;;;;;;;8.26;100.00;97200.56;5040534;28;20851;-81
2024/03/18 05:53:14;;;;;;;15.68;6.53;;;;;;;8.25;100.00;97202.41;5029510;28;20434;-80
2024/03/18 05:55:40;;;;;;;13.10;5.90;;;;;;;8.26;100.00;97206.66;5036894;28;20403;-80
2024/03/18 05:58:06;;;;;;;16.80;6.85;;;;;;;8.26;100.00;97203.22;5032286;28;20399;-80
2024/03/18 06:00:32;;;;;;;15.55;6.55;;;;;;;8.24;100.00;97200.81;5027167;28;20429;-79
2024/03/18 06:02:59;;;;;;;17.17;6.15;;;;;;;8.26;100.00;97204.00;5028184;28;20422;-81
2024/03/18 06:05:26;;;;;;;18.17;6.80;;;;;;;8.28;100.00;97206.38;5026273;28;20497;-82
2024/03/18 06:07:52;;;;;;;18.15;6.75;;;;;;;8.28;100.00;97196.63;5037219;28;20405;-81
2024/03/18 06:10:19;;;;;;;18.23;7.00;;;;;;;8.31;100.00;97209.38;5027586;28;20450;-80
2024/03/18 06:12:45;;;;;;;15.95;6.00;;;;;;;8.32;100.00;97207.53;5044686;28;20403;-80
2024/03/18 06:15:55;;;;;;;13.32;4.85;;;;;;;8.32;100.00;97210.97;5041766;28;20437;-81
2024/03/18 06:22:23;;;;;;;8.63;4.63;;;;;;;8.38;100.00;97207.38;5030372;28;20440;-81
2024/03/18 06:28:03;;;;;;;16.58;6.85;;;;;;;8.42;100.00;97207.72;5037569;28;20489;-79
2024/03/18 06:30:29;;;;;;;13.50;5.80;;;;;;;8.42;100.00;97219.03;5037709;28;20494;-80
2024/03/18 06:32:57;;;;;;;13.80;5.30;;;;;;;8.45;100.00;97217.75;5038145;28;20484;-80
2024/03/18 06:35:23;;;;;;;7.82;4.68;;;;;;;8.46;100.00;97217.53;5044205;28;20400;-80
2024/03/18 06:37:50;;;;;;;10.63;5.25;;;;;;;8.48;100.00;97219.94;5052605;28;20407;-80
2024/03/18 06:40:17;;;;;;;17.13;5.90;;;;;;;8.48;100.00;97223.38;5032158;28;20411;-81
2024/03/18 06:42:44;;;;;;;12.40;5.20;;;;;;;8.47;100.00;97224.41;5037634;28;20401;-81
2024/03/18 06:45:11;;;;;;;12.50;5.30;;;;;;;8.48;100.00;97225.19;5023314;28;20400;-80
2024/03/18 06:47:37;;;;;;;10.67;4.90;;;;;;;8.48;100.00;97233.91;5037483;28;20399;-80
2024/03/18 06:50:04;;;;;;;9.57;4.32;;;;;;;8.51;100.00;97228.16;5035140;28;20401;-79
2024/03/18 06:52:32;;;;;;;8.70;4.18;;;;;;;8.54;100.00;97238.22;5038144;28;20437;-81
2024/03/18 06:54:59;;;;;;;11.45;5.50;;;;;;;8.57;100.00;97230.88;5027760;28;20483;-81
2024/03/18 06:57:27;;;;;;;15.43;7.00;;;;;;;8.58;100.00;97241.16;5033022;28;20954;-81
2024/03/18 06:59:53;;;;;;;14.60;6.75;;;;;;;8.58;100.00;97232.44;5042060;28;20414;-78
2024/03/18 07:02:19;;;;;;;15.52;6.80;;;;;;;8.57;100.00;97241.44;5043238;28;20411;-81
2024/03/18 07:04:45;;;;;;;11.48;5.60;;;;;;;8.54;100.00;97238.22;5031702;28;20810;-79
2024/03/18 07:07:11;;;;;;;11.50;5.57;;;;;;;8.53;100.00;97238.47;5025336;28;20423;-79
2024/03/18 07:09:37;;;;;;;8.60;4.25;;;;;;;8.55;100.00;97241.66;5030681;28;20405;-80
2024/03/18 07:12:06;;;;;;;8.30;4.50;;;;;;;8.56;100.00;97250.38;5041472;28;20602;-80
2024/03/18 07:14:32;;;;;;;8.95;4.20;;;;;;;8.58;100.00;97249.06;5028098;28;20497;-80
2024/03/18 07:16:59;;;;;;;15.85;5.63;;;;;;;8.59;100.00;97261.22;5038956;28;20407;-81
2024/03/18 07:19:25;;;;;;;10.27;4.70;;;;;;;8.58;100.00;97254.34;5033319;28;20473;-81
2024/03/18 07:21:51;;;;;;;9.38;4.50;;;;;;;8.59;100.00;97247.25;5029300;28;20432;-82
2024/03/18 07:24:17;;;;;;;6.47;3.70;;;;;;;8.61;100.00;97253.88;5031340;28;20405;-81
2024/03/18 07:26:43;;;;;;;6.30;3.20;;;;;;;8.63;100.00;97251.81;5032461;28;20446;-81
2024/03/18 07:29:12;;;;;;;10.35;4.50;;;;;;;8.64;100.00;97247.34;5043463;28;20533;-81
2024/03/18 07:31:38;;;;;;;7.93;4.05;;;;;;;8.63;100.00;97243.91;5034944;28;20405;-80
2024/03/18 07:34:05;;;;;;;6.53;3.72;;;;;;;8.66;100.00;97234.69;5042540;28;20403;-81
2024/03/18 07:36:31;;;;;;;15.55;5.35;;;;;;;8.65;100.00;97233.88;5042062;28;20403;-80
2024/03/18 07:39:04;;;;;;;36.03;10.05;;;;;;;8.61;100.00;97229.34;5034145;28;20401;-80
2024/03/18 07:41:31;;;;;;;23.73;8.00;;;;;;;8.56;100.00;97238.00;5042362;28;20402;-81
2024/03/18 07:43:57;;;;;;;18.25;6.50;;;;;;;8.56;100.00;97229.28;5041826;28;20399;-80
2024/03/18 07:46:25;;;;;;;16.67;6.10;;;;;;;8.58;100.00;97227.16;5041571;28;20903;-81
2024/03/18 07:48:51;;;;;;;11.43;4.70;;;;;;;8.59;100.00;97229.56;5023470;28;20401;-81
2024/03/18 07:51:17;;;;;;;8.45;4.32;;;;;;;8.62;100.00;97226.47;5038618;28;20402;-80
2024/03/18 07:53:43;;;;;;;6.80;3.83;;;;;;;8.66;100.00;97221.50;5051586;28;20423;-81
2024/03/18 07:56:11;;;;;;;28.80;8.80;;;;;;;8.63;100.00;97225.44;5049170;28;20408;-82
2024/03/18 07:58:37;;;;;;;19.50;6.43;;;;;;;8.62;100.00;97229.09;5036526;28;20493;-82
2024/03/18 08:01:03;;;;;;;13.88;5.50;;;;;;;8.63;100.00;97225.44;5043190;28;20399;-81
2024/03/18 08:03:31;;;;;;;12.90;5.33;;;;;;;8.67;100.00;97236.28;5026111;28;20491;-80
2024/03/18 08:05:57;;;;;;;9.20;4.55;;;;;;;8.70;100.00;97235.81;5019643;28;20424;-79
2024/03/18 08:08:23;;;;;;;6.28;3.22;;;;;;;8.74;100.00;97231.63;5025631;28;20400;-79
2024/03/18 08:10:49;;;;;;;6.18;3.00;;;;;;;8.76;100.00;97222.44;5033897;28;20459;-80
2024/03/18 08:13:16;;;;;;;13.50;4.47;;;;;;;8.80;100.00;97220.09;5031821;28;20502;-80
2024/03/18 08:15:45;;;;;;;9.52;4.20;;;;;;;8.83;100.00;97223.06;5021647;28;20432;-80
2024/03/18 08:18:12;;;;;;;11.55;4.35;;;;;;;8.85;100.00;97228.91;5030555;28;20426;-81
2024/03/18 08:20:39;;;;;;;8.82;3.78;;;;;;;8.88;100.00;97224.97;5026619;28;20809;-79
2024/03/18 08:23:06;;;;;;;12.00;5.10;;;;;;;8.88;100.00;97233.69;5035156;28;20427;-80
2024/03/18 08:25:32;;;;;;;19.75;6.13;;;;;;;8.89;100.00;97229.19;5022601;28;20415;-80
2024/03/18 08:27:58;;;;;;;29.70;8.57;;;;;;;8.84;100.00;97235.22;5025797;28;20417;-79
2024/03/18 08:30:25;;;;;;;16.65;6.88;;;;;;;8.81;100.00;97232.25;5034172;28;20399;-79
2024/03/18 08:32:51;;;;;;;36.88;10.10;;;;;;;8.77;100.00;97228.53;5028910;28;20403;-79
2024/03/18 08:35:17;;;;;;;29.53;9.77;;;;;;;8.75;100.00;97226.13;5029934;28;20401;-80
2024/03/18 08:37:44;;;;;;;21.33;7.45;;;;;;;8.78;100.00;97230.13;5033056;28;20391;-79
2024/03/18 08:40:13;;;;;;;23.10;7.93;;;;;;;8.80;100.00;97233.28;5024300;28;20758;-78
2024/03/18 08:42:39;;;;;;;20.88;7.72;;;;;;;8.85;100.00;97233.38;5024684;28;20415;-80
2024/03/18 08:45:07;;;;;;;14.38;5.70;;;;;;;8.88;100.00;97236.31;5026293;28;20745;-79
2024/03/18 08:47:37;;;;;;;12.70;5.20;;;;;;;8.94;100.00;97245.13;5034018;28;20457;-79
2024/03/18 08:50:04;;;;;;;12.45;4.50;;;;;;;8.97;100.00;97239.34;5034770;28;20407;-80
2024/03/18 08:52:30;;;;;;;10.63;4.20;;;;;;;9.03;100.00;97241.00;5035650;28;20399;-81
2024/03/18 08:54:57;;;;;;;9.07;3.70;;;;;;;9.07;100.00;97242.13;5025756;28;20402;-79
2024/03/18 08:57:24;;;;;;;8.25;3.40;;;;;;;9.14;100.00;97240.09;5021901;28;20407;-80
2024/03/18 08:59:50;;;;;;;9.20;4.20;;;;;;;9.20;100.00;97238.31;5032417;28;20431;-80
2024/03/18 09:02:16;;;;;;;6.07;3.42;;;;;;;9.25;100.00;97238.38;5025693;28;20399;-79
2024/03/18 09:04:42;;;;;;;5.45;3.00;;;;;;;9.30;100.00;97241.88;5035688;28;20403;-79
2024/03/18 09:07:08;;;;;;;4.95;3.30;;;;;;;9.37;100.00;97241.69;5038171;28;20419;-79
2024/03/18 09:09:34;;;;;;;7.32;3.33;;;;;;;9.41;100.00;97236.72;5035522;28;21010;-80
2024/03/18 09:12:02;;;;;;;4.73;2.83;;;;;;;9.45;100.00;97240.47;5041799;28;20415;-80
2024/03/18 09:14:29;;;;;;;5.72;2.63;;;;;;;9.48;100.00;97238.13;5044837;28;20468;-80
2024/03/18 09:16:57;;;;;;;5.03;2.45;;;;;;;9.53;100.00;97237.38;5044843;28;20409;-80
2024/03/18 09:19:23;;;;;;;4.15;2.30;;;;;;;9.59;100.00;97234.56;5045688;28;20399;-80
2024/03/18 09:21:49;;;;;;;6.68;3.58;;;;;;;9.62;100.00;97239.31;5045392;28;20490;-79
2024/03/18 09:24:15;;;;;;;5.10;2.70;;;;;;;9.66;100.00;97242.28;5048522;28;20414;-80
2024/03/18 09:26:41;;;;;;;4.03;2.50;;;;;;;9.69;100.00;97239.97;5048161;28;20504;-81
2024/03/18 09:29:09;;;;;;;4.07;2.35;;;;;;;9.75;100.00;97243.44;5048130;28;20399;-80
2024/03/18 09:31:35;;;;;;;4.68;2.50;;;;;;;9.81;100.00;97239.78;5050323;28;20398;-81
2024/03/18 09:34:01;;;;;;;2.30;1.85;;;;;;;9.86;100.00;97245.13;5045869;28;20414;-80
2024/03/18 09:36:27;;;;;;;4.55;2.10;;;;;;;9.90;100.00;97245.44;5045328;28;20394;-81
2024/03/18 09:38:53;;;;;;;2.55;1.90;;;;;;;9.93;100.00;97244.91;5044345;28;20425;-81
2024/03/18 09:41:20;;;;;;;1.67;1.57;;;;;;;9.94;100.00;97242.03;5034549;28;20491;-80
2024/03/18 09:43:47;;;;;;;2.30;1.60;;;;;;;9.96;100.00;97247.88;5042537;28;20403;-81
2024/03/18 09:46:18;;;;;;;2.60;1.83;;;;;;;9.99;100.00;97246.59;5027887;28;20424;-81
2024/03/18 09:48:45;;;;;;;3.03;2.28;;;;;;;10.00;100.00;97250.81;5043785;28;20399;-81
2024/03/18 09:51:15;;;;;;;5.07;2.33;;;;;;;10.01;100.00;97247.91;5025048;28;20399;-80
2024/03/18 09:53:43;;;;;;;2.30;2.10;;;;;;;10.07;100.00;97246.13;5036851;28;20875;-81
2024/03/18 09:56:12;;;;;;;4.00;2.50;;;;;;;10.13;100.00;97255.72;5026676;28;20424;-83
2024/03/18 09:58:39;;;;;;;3.10;1.90;;;;;;;10.18;100.00;97250.50;5027430;28;20472;-82
2024/03/18 10:01:05;;;;;;;1.95;1.60;;;;;;;10.25;100.00;97258.22;5046595;28;20403;-82
2024/03/18 10:03:32;;;;;;;2.00;1.80;;;;;;;10.28;100.00;97265.66;5043357;28;20406;-78
2024/03/18 10:05:59;;;;;;;1.70;1.60;;;;;;;10.33;100.00;97263.03;5040239;28;20415;-82
2024/03/18 10:08:25;;;;;;;1.70;1.60;;;;;;;10.35;100.00;97267.03;5045653;28;20463;-80
2024/03/18 10:10:52;;;;;;;2.10;1.90;;;;;;;10.36;100.00;97258.06;5047250;28;20474;-82
2024/03/18 10:13:23;;;;;;;2.33;1.80;;;;;;;10.38;100.00;97260.44;5043850;28;20410;-81
2024/03/18 10:15:50;;;;;;;1.40;1.30;;;;;;;10.42;100.00;97264.19;5041324;28;20399;-81
2024/03/18 10:18:16;;;;;;;1.55;1.40;;;;;;;10.46;100.00;97262.63;5044936;28;20391;-81
2024/03/18 10:20:44;;;;;;;1.70;1.60;;;;;;;10.48;100.00;97269.25;5036788;28;20865;-80
2024/03/18 10:23:13;;;;;;;3.08;2.08;;;;;;;10.54;100.00;97269.28;5027635;28;20413;-79
2024/03/18 10:25:40;;;;;;;3.75;2.30;;;;;;;10.54;100.00;97267.44;5029831;28;20424;-79
2024/03/18 10:28:07;;;;;;;2.53;2.13;;;;;;;10.58;100.00;97267.75;5019191;28;20545;-78
2024/03/18 10:30:34;;;;;;;2.55;2.00;;;;;;;10.65;100.00;97266.47;5026854;28;20395;-79
2024/03/18 10:33:04;;;;;;;2.35;2.15;;;;;;;10.71;100.00;97267.31;5026766;28;20399;-80
2024/03/18 10:35:34;;;;;;;1.80;1.70;;;;;;;10.77;100.00;97266.28;5028349;28;20461;-79
2024/03/18 10:38:03;;;;;;;1.95;1.60;;;;;;;10.81;100.00;97270.84;5034837;28;20695;-79
2024/03/18 10:40:34;;;;;;;2.00;1.50;;;;;;;10.85;100.00;97279.03;5029193;28;20480;-80
2024/03/18 10:43:02;;;;;;;1.58;1.40;;;;;;;10.84;100.00;97270.31;5034387;28;20402;-79
2024/03/18 10:45:31;;;;;;;1.53;1.43;;;;;;;10.82;100.00;97271.63;5026511;28;20477;-80
2024/03/18 10:48:01;;;;;;;2.05;1.85;;;;;;;10.76;100.00;97273.44;5022990;28;20512;-78
2024/03/18 10:50:29;;;;;;;1.60;1.50;;;;;;;10.71;100.00;97272.59;5021467;28;20451;-80
2024/03/18 10:52:55;;;;;;;1.60;1.50;;;;;;;10.65;100.00;97277.06;5026410;28;20416;-77
2024/03/18 10:55:23;;;;;;;1.50;1.40;;;;;;;10.62;100.00;97274.13;5028657;28;20407;-79
2024/03/18 10:57:52;;;;;;;2.20;1.58;;;;;;;10.58;100.00;97275.69;5023859;28;20403;-80
2024/03/18 11:00:19;;;;;;;1.50;1.40;;;;;;;10.56;100.00;97273.28;5023703;28;20483;-81
2024/03/18 11:03:01;;;;;;;2.30;1.80;;;;;;;10.54;100.00;97274.59;5031508;28;20458;-80
2024/03/18 11:05:29;;;;;;;4.35;2.85;;;;;;;10.52;100.00;97279.34;5013287;28;20866;-77
2024/03/18 11:07:58;;;;;;;4.45;2.78;;;;;;;10.48;100.00;97282.50;5024280;28;20432;-80
2024/03/18 11:10:28;;;;;;;3.20;2.25;;;;;;;10.50;100.00;97281.44;5029370;28;20407;-79
2024/03/18 11:12:54;;;;;;;7.72;3.58;;;;;;;10.47;100.00;97278.25;5034902;28;20444;-80
2024/03/18 11:15:20;;;;;;;5.72;3.38;;;;;;;10.45;100.00;97287.47;5034959;28;20434;-80
2024/03/18 11:17:48;;;;;;;5.82;2.92;;;;;;;10.42;100.00;97288.81;5034693;28;20403;-80
2024/03/18 11:20:16;;;;;;;3.00;2.47;;;;;;;10.41;100.00;97289.03;5023580;28;20397;-78
2024/03/18 11:22:54;;;;;;;3.38;2.50;;;;;;;10.39;100.00;97296.44;5023213;28;20395;-81
2024/03/18 11:25:22;;;;;;;6.65;2.63;;;;;;;10.35;100.00;97293.50;5034727;28;20450;-79
2024/03/18 11:27:52;;;;;;;3.38;2.20;;;;;;;10.33;100.00;97295.59;4976181;28;1693807;-82
2024/03/18 11:30:27;;;;;;;3.60;2.30;;;;;;;10.34;100.00;97293.75;5027899;28;20403;-80
2024/03/18 11:32:53;;;;;;;2.75;2.13;;;;;;;10.37;100.00;97298.53;5042781;28;20395;-81
2024/03/18 11:35:19;;;;;;;2.15;1.90;;;;;;;10.39;100.00;97299.88;5033870;28;20827;-80
2024/03/18 11:37:45;;;;;;;2.97;2.20;;;;;;;10.42;100.00;97296.75;5042554;28;20757;-80